Time;durP1;ratioP1;P1;durP2;ratioP2;P2;SDS_P1;SDS_P2;PMS_P1;PMS_P2;Temp;Humidity;BMP_temperature;BMP_pressure;BME280_temperature;BME280_humidity;BME280_pressure;Samples;Min_cycle;Max_cycle;Signal;HPM_P1;HPM_P2
2021/01/16 00:00:55;;;;;;;18.42;7.22;;;-5.60;99.90;;;;;;4190953;28;20032;-39
2021/01/16 00:02:57;;;;;;;14.73;6.20;;;-5.60;99.90;;;;;;4191671;28;20044;-38
2021/01/16 00:04:58;;;;;;;14.95;7.20;;;-5.60;99.90;;;;;;4191428;28;20078;-41
2021/01/16 00:06:59;;;;;;;14.88;6.68;;;-5.70;99.90;;;;;;4191585;28;20078;-40
2021/01/16 00:09:00;;;;;;;17.58;8.13;;;-5.70;99.90;;;;;;4190545;28;20075;-43
2021/01/16 00:11:02;;;;;;;21.05;8.75;;;-5.80;99.90;;;;;;4190491;28;20464;-39
2021/01/16 00:13:03;;;;;;;20.73;8.95;;;-5.90;99.90;;;;;;4190055;28;20082;-38
2021/01/16 00:15:05;;;;;;;20.33;7.57;;;-6.00;99.90;;;;;;4191192;28;20024;-39
2021/01/16 00:17:07;;;;;;;16.95;7.57;;;-6.10;99.90;;;;;;4190973;28;20024;-41
2021/01/16 00:19:08;;;;;;;16.70;7.03;;;-6.10;99.90;;;;;;4190466;28;20029;-39
2021/01/16 00:21:10;;;;;;;21.77;8.70;;;-6.20;99.90;;;;;;4189546;28;20032;-38
2021/01/16 00:23:12;;;;;;;19.63;7.00;;;-6.40;99.90;;;;;;4188868;28;20049;-39
2021/01/16 00:25:13;;;;;;;16.00;6.45;;;-6.50;99.90;;;;;;4191037;28;20423;-41
2021/01/16 00:27:15;;;;;;;19.40;6.65;;;-6.60;99.90;;;;;;4190121;28;20063;-38
2021/01/16 00:29:16;;;;;;;15.77;7.10;;;-6.70;99.90;;;;;;4190743;28;20025;-38
2021/01/16 00:31:17;;;;;;;16.90;7.18;;;-6.70;99.90;;;;;;4189862;28;20056;-39
2021/01/16 00:33:21;;;;;;;15.13;5.90;;;-6.80;99.90;;;;;;4189498;28;20045;-40
2021/01/16 00:35:23;;;;;;;15.57;5.90;;;-6.80;99.90;;;;;;4190655;28;20614;-40
2021/01/16 00:37:24;;;;;;;13.73;5.78;;;-6.80;99.90;;;;;;4178600;28;20067;-41
2021/01/16 00:39:25;;;;;;;15.45;7.18;;;-6.80;99.90;;;;;;4173973;28;20489;-38
2021/01/16 00:41:26;;;;;;;25.15;7.30;;;-6.90;99.90;;;;;;4173070;28;20748;-43
2021/01/16 00:43:28;;;;;;;19.48;7.45;;;-7.00;99.90;;;;;;4173048;28;20106;-39
2021/01/16 00:45:29;;;;;;;14.75;6.80;;;-7.10;99.90;;;;;;4173847;28;20523;-39
2021/01/16 00:47:30;;;;;;;15.70;6.40;;;-7.20;99.90;;;;;;4173125;28;20531;-37
2021/01/16 00:49:31;;;;;;;14.32;6.25;;;-7.30;99.90;;;;;;4185688;28;20049;-38
2021/01/16 00:51:32;;;;;;;15.45;6.00;;;-7.30;99.90;;;;;;4189991;28;20066;-45
2021/01/16 00:53:34;;;;;;;12.95;4.88;;;-7.40;99.90;;;;;;4189448;28;20110;-41
2021/01/16 00:55:36;;;;;;;9.50;4.47;;;-7.40;99.90;;;;;;4190113;28;20395;-42
2021/01/16 00:57:37;;;;;;;12.15;4.13;;;-7.40;99.90;;;;;;4190298;28;20036;-37
2021/01/16 00:59:38;;;;;;;10.55;5.03;;;-7.40;99.90;;;;;;4190274;28;20037;-36
2021/01/16 01:01:39;;;;;;;10.50;4.38;;;-7.40;99.90;;;;;;4189167;28;20473;-39
2021/01/16 01:03:40;;;;;;;10.40;4.32;;;-7.50;99.90;;;;;;4190170;28;20032;-37
2021/01/16 01:05:41;;;;;;;11.18;4.82;;;-7.50;99.90;;;;;;4189698;28;20098;-39
2021/01/16 01:07:50;;;;;;;13.02;5.97;;;-7.50;99.90;;;;;;4189186;28;20054;-39
2021/01/16 01:09:51;;;;;;;13.65;5.18;;;-7.50;99.90;;;;;;4189257;28;20040;-38
2021/01/16 01:11:52;;;;;;;12.43;5.45;;;-7.50;99.90;;;;;;4189813;28;20044;-38
2021/01/16 01:13:53;;;;;;;13.20;5.57;;;-7.60;99.90;;;;;;4186415;28;20037;-37
2021/01/16 01:15:55;;;;;;;14.10;4.90;;;-7.50;99.90;;;;;;4190247;28;20146;-40
2021/01/16 01:17:58;;;;;;;16.25;5.95;;;-7.50;99.90;;;;;;4189771;28;20028;-38
2021/01/16 01:19:59;;;;;;;14.73;5.60;;;-7.50;99.90;;;;;;4189610;28;20025;-38
2021/01/16 01:22:00;;;;;;;15.23;6.10;;;-7.50;99.90;;;;;;4190421;28;20028;-39
2021/01/16 01:24:01;;;;;;;13.40;5.38;;;-7.60;99.90;;;;;;4174904;28;20049;-38
2021/01/16 01:26:03;;;;;;;13.00;5.93;;;-7.60;99.90;;;;;;4173010;28;20469;-39
2021/01/16 01:28:04;;;;;;;13.63;5.13;;;-7.50;99.90;;;;;;4172879;28;20120;-41
2021/01/16 01:30:07;;;;;;;10.35;5.32;;;-7.50;99.90;;;;;;4172894;28;20045;-39
2021/01/16 01:32:09;;;;;;;17.38;5.60;;;-7.60;99.90;;;;;;4172900;28;20052;-37
2021/01/16 01:34:10;;;;;;;9.88;5.03;;;-7.60;99.90;;;;;;4172900;28;20103;-42
2021/01/16 01:36:11;;;;;;;11.32;4.97;;;-7.60;99.90;;;;;;4172708;28;20033;-38
2021/01/16 01:38:17;;;;;;;11.80;5.28;;;-7.60;99.90;;;;;;4174392;28;20481;-44
2021/01/16 01:40:20;;;;;;;11.75;4.95;;;-7.60;99.90;;;;;;4188920;28;20125;-38
2021/01/16 01:42:22;;;;;;;9.80;4.00;;;-7.60;99.90;;;;;;4188759;28;20090;-41
2021/01/16 01:44:23;;;;;;;8.90;4.22;;;-7.60;99.90;;;;;;4188408;28;20102;-41
2021/01/16 01:46:24;;;;;;;11.18;4.57;;;-7.60;99.90;;;;;;4189226;28;20089;-44
2021/01/16 01:48:26;;;;;;;11.40;4.18;;;-7.60;99.90;;;;;;4189596;28;20082;-41
2021/01/16 01:50:30;;;;;;;9.43;3.95;;;-7.60;99.90;;;;;;4186984;28;20818;-40
2021/01/16 01:52:31;;;;;;;13.23;4.90;;;-7.60;99.90;;;;;;4189951;28;20450;-40
2021/01/16 01:54:34;;;;;;;12.80;4.43;;;-7.60;99.90;;;;;;4188570;28;20563;-39
2021/01/16 01:56:37;;;;;;;11.02;4.93;;;-7.60;99.90;;;;;;4188847;28;20086;-39
2021/01/16 01:58:40;;;;;;;9.70;4.68;;;-7.70;99.90;;;;;;4189222;28;20029;-46
2021/01/16 02:00:42;;;;;;;10.27;4.57;;;-7.70;99.90;;;;;;4189083;28;20102;-41
2021/01/16 02:02:45;;;;;;;8.45;4.50;;;-7.70;99.90;;;;;;4189282;28;20055;-43
2021/01/16 02:04:47;;;;;;;9.38;4.25;;;-7.70;99.90;;;;;;4189074;28;20037;-42
2021/01/16 02:06:48;;;;;;;11.25;4.78;;;-7.70;99.90;;;;;;4176130;28;20509;-39
2021/01/16 02:08:50;;;;;;;11.02;4.97;;;-7.70;99.90;;;;;;4172059;28;20167;-46
2021/01/16 02:10:51;;;;;;;8.98;4.13;;;-7.80;99.90;;;;;;4172843;28;20114;-42
2021/01/16 02:12:54;;;;;;;8.70;3.70;;;-7.80;99.90;;;;;;4176849;28;20028;-41
2021/01/16 02:15:14;;;;;;;11.82;4.18;;;-7.80;99.90;;;;;;4188932;28;20028;-37
2021/01/16 02:17:21;;;;;;;7.80;4.13;;;-7.80;99.90;;;;;;4188377;28;20041;-41
2021/01/16 02:20:10;;;;;;;10.93;4.20;;;-7.80;99.90;;;;;;4188742;28;20094;-44
2021/01/16 02:22:14;;;;;;;9.05;3.65;;;-7.80;99.90;;;;;;4189357;28;20089;-42
2021/01/16 02:24:19;;;;;;;7.70;3.58;;;-7.90;99.90;;;;;;4189021;28;20427;-39
2021/01/16 02:26:46;;;;;;;9.05;4.55;;;-7.90;99.90;;;;;;4188735;28;20079;-47
2021/01/16 02:29:00;;;;;;;10.52;4.32;;;-7.90;99.90;;;;;;4142473;28;20561;-39
2021/01/16 02:31:02;;;;;;;10.52;3.78;;;-8.00;99.90;;;;;;4172206;28;20564;-39
2021/01/16 02:33:07;;;;;;;10.95;3.75;;;-8.00;99.90;;;;;;4172277;28;20159;-39
2021/01/16 02:35:10;;;;;;;6.18;3.42;;;-8.00;99.90;;;;;;4171174;28;20095;-39
2021/01/16 02:37:45;;;;;;;16.77;7.22;;;-8.00;99.90;;;;;;4171750;28;20045;-37
2021/01/16 02:39:56;;;;;;;17.83;8.77;;;-8.00;99.90;;;;;;4171935;28;20036;-49
2021/01/16 02:42:15;;;;;;;33.35;11.52;;;-8.00;99.90;;;;;;4172409;28;20045;-39
2021/01/16 02:44:33;;;;;;;28.33;8.82;;;-8.10;99.90;;;;;;4172283;28;20088;-38
2021/01/16 02:46:42;;;;;;;59.35;19.15;;;-8.10;99.90;;;;;;4172297;28;20036;-39
2021/01/16 02:48:54;;;;;;;33.33;11.20;;;-8.10;99.90;;;;;;4171385;28;20041;-38
2021/01/16 02:51:00;;;;;;;52.17;15.88;;;-8.10;99.90;;;;;;4172266;28;20025;-40
2021/01/16 02:53:06;;;;;;;51.85;14.57;;;-8.10;99.90;;;;;;4171845;28;20102;-42
2021/01/16 02:55:08;;;;;;;61.22;17.55;;;-8.20;99.90;;;;;;4171579;28;20106;-40
2021/01/16 02:57:10;;;;;;;98.18;27.15;;;-8.20;99.90;;;;;;4169773;28;20067;-38
2021/01/16 02:59:12;;;;;;;48.45;13.57;;;-8.30;99.90;;;;;;4171277;28;20530;-39
2021/01/16 03:01:13;;;;;;;44.92;12.82;;;-8.30;99.90;;;;;;4171781;28;20480;-41
2021/01/16 03:03:14;;;;;;;44.55;12.40;;;-8.30;99.90;;;;;;4172125;28;20089;-38
2021/01/16 03:05:17;;;;;;;62.72;17.25;;;-8.20;99.90;;;;;;4185283;28;20024;-42
2021/01/16 03:07:21;;;;;;;46.78;14.13;;;-8.30;99.90;;;;;;4188777;28;20094;-42
2021/01/16 03:09:23;;;;;;;35.60;12.30;;;-8.30;99.90;;;;;;4188367;28;20032;-39
2021/01/16 03:11:25;;;;;;;40.35;14.77;;;-8.30;99.90;;;;;;4188258;28;20078;-41
2021/01/16 03:13:30;;;;;;;30.52;10.57;;;-8.30;99.90;;;;;;4188130;28;20393;-39
2021/01/16 03:15:32;;;;;;;19.00;7.15;;;-8.30;99.90;;;;;;4188780;28;20426;-39
2021/01/16 03:17:52;;;;;;;23.50;8.60;;;-8.30;99.90;;;;;;4188279;28;20045;-39
2021/01/16 03:19:53;;;;;;;12.02;5.00;;;-8.30;99.90;;;;;;4187547;28;20102;-42
2021/01/16 03:21:54;;;;;;;10.98;4.88;;;-8.30;99.90;;;;;;4183427;28;20059;-40
2021/01/16 03:23:56;;;;;;;15.18;7.50;;;-8.30;99.90;;;;;;4171397;28;20033;-40
2021/01/16 03:25:57;;;;;;;14.07;6.22;;;-8.30;99.90;;;;;;4170979;28;20114;-39
2021/01/16 03:27:59;;;;;;;12.32;5.13;;;-8.40;99.90;;;;;;4171271;28;20033;-44
2021/01/16 03:30:00;;;;;;;13.48;5.43;;;-8.40;99.90;;;;;;4171209;28;20037;-43
2021/01/16 03:32:03;;;;;;;12.30;3.85;;;-8.40;99.90;;;;;;4171364;28;20055;-43
2021/01/16 03:34:05;;;;;;;18.15;5.03;;;-8.50;99.90;;;;;;4171451;28;20032;-38
2021/01/16 03:36:06;;;;;;;15.77;5.22;;;-8.50;99.90;;;;;;4170960;28;20037;-40
2021/01/16 03:38:09;;;;;;;14.30;5.00;;;-8.50;99.90;;;;;;4171568;28;20045;-40
2021/01/16 03:40:11;;;;;;;12.38;4.88;;;-8.60;99.90;;;;;;4171988;28;20075;-43
2021/01/16 03:42:12;;;;;;;11.52;4.03;;;-8.70;99.90;;;;;;4171390;28;20045;-39
2021/01/16 03:44:14;;;;;;;10.77;4.63;;;-8.70;99.90;;;;;;4172210;28;20037;-40
2021/01/16 03:46:15;;;;;;;9.25;4.75;;;-8.80;99.90;;;;;;4170663;28;20098;-39
2021/01/16 03:48:16;;;;;;;7.63;3.25;;;-8.80;99.90;;;;;;4173949;28;20455;-43
2021/01/16 03:50:17;;;;;;;8.50;3.70;;;-8.90;99.90;;;;;;4176050;28;20860;-39
2021/01/16 03:52:29;;;;;;;8.10;3.50;;;-8.80;99.90;;;;;;4174301;28;20053;-42
2021/01/16 03:54:31;;;;;;;10.23;4.25;;;-8.70;99.90;;;;;;4174060;28;20052;-40
2021/01/16 03:56:32;;;;;;;9.50;3.70;;;-8.60;99.90;;;;;;4174605;28;20087;-43
2021/01/16 03:58:33;;;;;;;11.48;5.03;;;-8.60;99.90;;;;;;4174326;28;20503;-40
2021/01/16 04:00:34;;;;;;;5.97;3.00;;;-8.60;99.90;;;;;;4174337;28;20029;-40
2021/01/16 04:02:36;;;;;;;7.78;4.05;;;-8.50;99.90;;;;;;4174806;28;20563;-39
2021/01/16 04:04:39;;;;;;;6.85;3.20;;;-8.50;99.90;;;;;;4174082;28;20383;-40
2021/01/16 04:06:40;;;;;;;9.25;4.15;;;-8.50;99.90;;;;;;4174108;28;20091;-40
2021/01/16 04:08:41;;;;;;;8.40;3.50;;;-8.50;99.90;;;;;;4174575;28;20550;-46
2021/01/16 04:10:42;;;;;;;8.23;3.33;;;-8.50;99.90;;;;;;4174527;28;20500;-39
2021/01/16 04:12:44;;;;;;;8.50;3.08;;;-8.60;99.90;;;;;;4177033;28;20565;-44
2021/01/16 04:14:45;;;;;;;8.85;3.55;;;-8.50;99.90;;;;;;4190602;28;20649;-40
2021/01/16 04:16:46;;;;;;;8.77;3.35;;;-8.50;99.90;;;;;;4190679;28;20045;-40
2021/01/16 04:18:47;;;;;;;10.45;3.17;;;-8.50;99.90;;;;;;4190555;28;20094;-43
2021/01/16 04:20:48;;;;;;;7.57;3.63;;;-8.50;99.90;;;;;;4190667;28;20094;-39
2021/01/16 04:22:50;;;;;;;7.68;3.22;;;-8.50;99.90;;;;;;4190291;28;20044;-42
2021/01/16 04:24:52;;;;;;;9.85;3.40;;;-8.50;99.90;;;;;;4190160;28;20479;-44
2021/01/16 04:26:53;;;;;;;11.18;3.42;;;-8.40;99.90;;;;;;4190202;28;20435;-42
2021/01/16 04:28:54;;;;;;;11.85;4.22;;;-8.50;99.90;;;;;;4190355;28;20049;-38
2021/01/16 04:30:55;;;;;;;12.18;5.20;;;-8.40;99.90;;;;;;4190617;28;21640;-40
2021/01/16 04:32:57;;;;;;;8.77;4.65;;;-8.40;99.90;;;;;;4189866;28;20052;-39
2021/01/16 04:34:58;;;;;;;9.88;3.22;;;-8.30;99.90;;;;;;4190713;28;20025;-43
2021/01/16 04:36:59;;;;;;;9.02;4.18;;;-8.30;99.90;;;;;;4190230;28;20846;-40
2021/01/16 04:39:00;;;;;;;10.20;4.10;;;-8.30;99.90;;;;;;4190326;28;20545;-41
2021/01/16 04:41:02;;;;;;;13.13;3.88;;;-8.30;99.90;;;;;;4181443;28;20045;-42
2021/01/16 04:43:05;;;;;;;10.43;3.78;;;-8.20;99.90;;;;;;4173279;28;20503;-40
2021/01/16 04:45:07;;;;;;;11.82;3.20;;;-8.20;99.90;;;;;;4172854;28;20045;-38
2021/01/16 04:47:11;;;;;;;8.00;3.30;;;-8.20;99.90;;;;;;4173827;28;20025;-41
2021/01/16 04:49:14;;;;;;;9.15;3.30;;;-8.20;99.90;;;;;;4173824;28;20087;-42
2021/01/16 04:51:16;;;;;;;12.25;3.67;;;-8.10;99.90;;;;;;4173590;28;20029;-44
2021/01/16 04:53:19;;;;;;;8.55;3.65;;;-8.10;99.90;;;;;;4174279;28;20071;-41
2021/01/16 04:55:20;;;;;;;7.25;3.20;;;-8.10;99.90;;;;;;4173146;28;20098;-39
2021/01/16 04:57:24;;;;;;;17.58;6.00;;;-8.00;99.90;;;;;;4173769;28;20021;-39
2021/01/16 04:59:25;;;;;;;28.85;11.35;;;-8.00;99.90;;;;;;4171938;28;20551;-40
2021/01/16 05:01:27;;;;;;;59.10;22.88;;;-8.00;99.90;;;;;;4173509;28;20033;-40
2021/01/16 05:03:34;;;;;;;76.35;33.40;;;-7.90;99.90;;;;;;4175133;28;20029;-40
2021/01/16 05:05:41;;;;;;;84.10;34.17;;;-7.90;99.90;;;;;;4189757;28;20489;-44
2021/01/16 05:07:43;;;;;;;44.42;19.83;;;-7.90;99.90;;;;;;4174844;28;20032;-40
2021/01/16 05:09:46;;;;;;;46.65;19.65;;;-7.90;99.90;;;;;;4173235;28;20045;-39
2021/01/16 05:12:05;;;;;;;29.55;14.65;;;-7.90;99.90;;;;;;4173069;28;20142;-44
2021/01/16 05:14:19;;;;;;;18.25;8.57;;;-7.80;99.90;;;;;;4173601;28;20542;-40
2021/01/16 05:16:25;;;;;;;25.25;9.85;;;-7.80;99.90;;;;;;4172608;28;20808;-43
2021/01/16 05:18:26;;;;;;;17.48;5.88;;;-7.80;99.90;;;;;;4172180;28;20041;-42
2021/01/16 05:20:28;;;;;;;18.08;8.32;;;-7.70;99.90;;;;;;4173544;28;20090;-40
2021/01/16 05:22:29;;;;;;;21.75;10.05;;;-7.70;99.90;;;;;;4172378;28;20504;-42
2021/01/16 05:24:30;;;;;;;14.73;7.15;;;-7.70;99.90;;;;;;4171762;28;20063;-40
2021/01/16 05:26:39;;;;;;;12.15;6.30;;;-7.70;99.90;;;;;;4171867;28;20041;-41
2021/01/16 05:28:43;;;;;;;13.85;5.22;;;-7.70;99.90;;;;;;4173135;28;20569;-39
2021/01/16 05:30:50;;;;;;;13.35;5.05;;;-7.60;99.90;;;;;;4173123;28;20477;-43
2021/01/16 05:32:51;;;;;;;13.02;5.57;;;-7.60;99.90;;;;;;4172904;28;20037;-39
2021/01/16 05:34:53;;;;;;;11.95;4.38;;;-7.60;99.90;;;;;;4172825;28;20025;-40
2021/01/16 05:36:55;;;;;;;12.50;5.43;;;-7.60;99.90;;;;;;4170316;28;20099;-40
2021/01/16 05:38:56;;;;;;;17.30;5.18;;;-7.60;99.90;;;;;;4172851;28;20075;-40
2021/01/16 05:40:58;;;;;;;17.98;6.55;;;-7.50;99.90;;;;;;4171818;28;21114;-40
2021/01/16 05:43:00;;;;;;;15.82;6.53;;;-7.50;99.90;;;;;;4172802;28;20029;-39
2021/01/16 05:45:01;;;;;;;17.80;6.38;;;-7.50;99.90;;;;;;4172627;28;21406;-40
2021/01/16 05:47:04;;;;;;;19.73;8.35;;;-7.50;99.90;;;;;;4171845;28;20033;-39
2021/01/16 05:49:05;;;;;;;19.13;7.50;;;-7.50;99.90;;;;;;4172025;28;20083;-39
2021/01/16 05:51:07;;;;;;;13.88;6.57;;;-7.50;99.90;;;;;;4173131;28;20082;-40
2021/01/16 05:53:09;;;;;;;16.15;7.63;;;-7.50;99.90;;;;;;4173063;28;20849;-41
2021/01/16 05:55:12;;;;;;;16.80;7.05;;;-7.40;99.90;;;;;;4171532;28;20098;-40
2021/01/16 05:57:17;;;;;;;10.30;5.70;;;-7.40;99.90;;;;;;4173051;28;20122;-42
2021/01/16 05:59:20;;;;;;;14.48;6.13;;;-7.40;99.90;;;;;;4170894;28;20103;-39
2021/01/16 06:01:22;;;;;;;13.55;6.00;;;-7.40;99.90;;;;;;4172271;28;20037;-41
2021/01/16 06:03:24;;;;;;;18.25;6.32;;;-7.40;99.90;;;;;;4171427;28;20567;-42
2021/01/16 06:05:25;;;;;;;15.63;6.43;;;-7.40;99.90;;;;;;4172569;28;20029;-40
2021/01/16 06:07:27;;;;;;;14.50;6.38;;;-7.40;99.90;;;;;;4173339;28;20044;-40
2021/01/16 06:09:28;;;;;;;12.40;5.60;;;-7.40;99.90;;;;;;4172185;28;20044;-40
2021/01/16 06:11:38;;;;;;;15.48;6.30;;;-7.40;99.90;;;;;;4172603;28;20029;-40
2021/01/16 06:13:41;;;;;;;20.17;6.75;;;-7.40;99.90;;;;;;4171716;28;20093;-39
2021/01/16 06:15:51;;;;;;;23.27;6.50;;;-7.40;99.90;;;;;;4182080;28;20745;-40
2021/01/16 06:17:53;;;;;;;12.82;6.00;;;-7.40;99.90;;;;;;4185622;28;20454;-39
2021/01/16 06:19:56;;;;;;;14.60;6.15;;;-7.40;99.90;;;;;;4175398;28;20044;-40
2021/01/16 06:21:57;;;;;;;14.35;6.28;;;-7.30;99.90;;;;;;4184644;28;20438;-39
2021/01/16 06:24:00;;;;;;;22.27;6.95;;;-7.30;99.90;;;;;;4189111;28;20090;-44
2021/01/16 06:26:08;;;;;;;17.15;6.40;;;-7.30;99.90;;;;;;4174775;28;20415;-43
2021/01/16 06:28:12;;;;;;;18.05;6.75;;;-7.20;99.90;;;;;;4172404;28;20021;-41
2021/01/16 06:30:16;;;;;;;20.45;7.78;;;-7.20;99.90;;;;;;4171235;28;20045;-43
2021/01/16 06:32:18;;;;;;;19.73;7.20;;;-7.20;99.90;;;;;;4171956;28;20045;-40
2021/01/16 06:34:30;;;;;;;19.65;7.20;;;-7.20;99.90;;;;;;4170881;28;20041;-40
2021/01/16 06:36:33;;;;;;;18.08;7.35;;;-7.10;99.90;;;;;;4172114;28;20086;-39
2021/01/16 06:38:36;;;;;;;20.42;7.50;;;-7.00;99.90;;;;;;4188179;28;20534;-41
2021/01/16 06:40:37;;;;;;;26.10;8.45;;;-6.90;99.90;;;;;;4187700;28;20094;-41
2021/01/16 06:42:39;;;;;;;20.13;7.70;;;-6.80;99.90;;;;;;4187850;28;20054;-37
2021/01/16 06:44:41;;;;;;;19.02;7.82;;;-6.80;99.90;;;;;;4188285;28;20086;-40
2021/01/16 06:46:49;;;;;;;21.98;8.18;;;-6.70;99.90;;;;;;4188018;28;20028;-39
2021/01/16 06:48:52;;;;;;;18.48;8.70;;;-6.70;99.90;;;;;;4188089;28;20746;-42
2021/01/16 06:50:55;;;;;;;14.77;6.88;;;-6.70;99.90;;;;;;4187948;28;20534;-42
2021/01/16 06:52:56;;;;;;;14.38;6.68;;;-6.60;99.90;;;;;;4188472;28;20044;-45
2021/01/16 06:54:57;;;;;;;17.52;6.75;;;-6.60;99.90;;;;;;4188876;28;20036;-38
2021/01/16 06:57:08;;;;;;;20.48;7.07;;;-6.60;99.90;;;;;;4187368;28;20500;-38
2021/01/16 06:59:13;;;;;;;14.68;7.15;;;-6.60;99.90;;;;;;4188281;28;20040;-37
2021/01/16 07:01:15;;;;;;;23.38;7.40;;;-6.50;99.90;;;;;;4188092;28;20086;-38
2021/01/16 07:03:17;;;;;;;20.55;8.00;;;-6.50;99.90;;;;;;4188351;28;20438;-42
2021/01/16 07:05:22;;;;;;;16.98;7.90;;;-6.50;99.90;;;;;;4188876;28;20561;-41
2021/01/16 07:07:28;;;;;;;19.15;8.32;;;-6.20;99.90;;;;;;4188484;28;20279;-42
2021/01/16 07:09:33;;;;;;;20.20;8.63;;;-5.80;99.90;;;;;;4203921;28;20445;-40
2021/01/16 07:11:42;;;;;;;17.35;7.80;;;-5.50;99.90;;;;;;4204272;28;20036;-39
2021/01/16 07:13:46;;;;;;;18.30;7.45;;;-5.20;99.90;;;;;;4204635;28;20063;-41
2021/01/16 07:15:47;;;;;;;17.17;7.28;;;-4.90;99.90;;;;;;4204554;28;20040;-41
2021/01/16 07:17:49;;;;;;;25.77;8.25;;;-4.70;99.90;;;;;;4204016;28;20033;-41
2021/01/16 07:19:53;;;;;;;23.33;7.63;;;-4.40;99.90;;;;;;4204426;28;20044;-39
2021/01/16 07:21:56;;;;;;;17.98;7.70;;;-4.10;99.90;;;;;;4205040;28;20040;-41
2021/01/16 07:23:59;;;;;;;19.67;7.90;;;-3.90;99.90;;;;;;4208240;28;20208;-40
2021/01/16 07:26:02;;;;;;;21.20;8.30;;;-3.60;99.90;;;;;;4206625;28;20036;-39
2021/01/16 07:28:04;;;;;;;18.37;8.53;;;-3.40;99.90;;;;;;4207716;28;20264;-39
2021/01/16 07:30:14;;;;;;;20.87;9.27;;;-3.10;99.90;;;;;;4207694;28;20264;-41
2021/01/16 07:32:16;;;;;;;35.95;10.30;;;-3.00;99.90;;;;;;4207918;28;20269;-41
2021/01/16 07:34:17;;;;;;;21.43;10.20;;;-2.90;99.90;;;;;;4207956;28;20429;-42
2021/01/16 07:36:24;;;;;;;21.70;9.63;;;-3.00;99.90;;;;;;4207837;28;20261;-40
2021/01/16 07:38:27;;;;;;;20.43;8.70;;;-2.80;99.90;;;;;;4205723;28;20768;-41
2021/01/16 07:40:31;;;;;;;22.60;9.43;;;-2.70;99.90;;;;;;4205470;28;20354;-43
2021/01/16 07:42:50;;;;;;;21.40;9.40;;;-2.60;99.90;;;;;;4207343;28;20834;-39
2021/01/16 07:45:09;;;;;;;20.30;9.17;;;-2.30;99.90;;;;;;4208133;28;20663;-40
2021/01/16 07:47:18;;;;;;;24.13;9.17;;;-2.30;99.90;;;;;;4207695;28;20268;-38
2021/01/16 07:49:27;;;;;;;19.00;8.60;;;-2.40;99.90;;;;;;4207850;28;20273;-41
2021/01/16 07:51:39;;;;;;;19.60;8.30;;;-2.60;99.90;;;;;;4207846;28;20281;-43
2021/01/16 07:53:43;;;;;;;23.47;9.07;;;-2.60;99.90;;;;;;4207820;28;20292;-42
2021/01/16 07:55:45;;;;;;;20.87;8.77;;;-2.90;99.90;;;;;;4207642;28;20711;-43
2021/01/16 07:57:49;;;;;;;24.33;9.57;;;-2.90;99.90;;;;;;4206844;28;20276;-40
2021/01/16 07:59:55;;;;;;;20.07;8.67;;;-2.90;99.90;;;;;;4207924;28;21196;-43
2021/01/16 08:02:18;;;;;;;18.23;9.00;;;-3.00;99.90;;;;;;4207460;28;20261;-43
2021/01/16 08:04:23;;;;;;;19.63;8.37;;;-3.20;99.90;;;;;;4207025;28;20265;-41
2021/01/16 08:06:34;;;;;;;20.27;8.63;;;-3.60;99.90;;;;;;4206201;28;20599;-38
2021/01/16 08:09:18;;;;;;;24.97;9.13;;;-3.90;99.90;;;;;;4206913;28;20273;-44
2021/01/16 08:11:27;;;;;;;17.63;8.10;;;-4.20;99.90;;;;;;4161723;28;20405;-40
2021/01/16 08:13:28;;;;;;;22.73;9.27;;;-4.50;99.90;;;;;;4205205;28;20300;-38
2021/01/16 08:15:30;;;;;;;22.05;9.13;;;-4.60;99.90;;;;;;4206813;28;20168;-39
2021/01/16 08:17:39;;;;;;;20.33;7.95;;;-4.60;99.90;;;;;;4206588;28;20040;-39
2021/01/16 08:19:46;;;;;;;21.42;9.13;;;-4.60;99.90;;;;;;4206057;28;20110;-41
2021/01/16 08:22:16;;;;;;;22.27;9.57;;;-4.40;99.90;;;;;;4206542;28;20101;-41
2021/01/16 08:24:20;;;;;;;32.13;11.02;;;-4.30;99.90;;;;;;4206939;28;20044;-39
2021/01/16 08:26:23;;;;;;;29.88;12.98;;;-4.20;99.90;;;;;;4207069;28;20302;-43
2021/01/16 08:28:27;;;;;;;20.90;8.13;;;-4.30;99.90;;;;;;4206318;28;20089;-39
2021/01/16 08:30:31;;;;;;;39.80;13.82;;;-4.30;99.90;;;;;;4206951;28;20048;-42
2021/01/16 08:32:32;;;;;;;26.58;9.43;;;-4.40;99.90;;;;;;4206453;28;20028;-39
2021/01/16 08:34:53;;;;;;;29.92;10.23;;;-4.50;99.90;;;;;;4206446;28;20044;-38
2021/01/16 08:37:07;;;;;;;20.45;7.35;;;-4.40;99.90;;;;;;4206774;28;20031;-39
2021/01/16 08:39:28;;;;;;;23.33;9.07;;;-4.40;99.90;;;;;;4206224;28;20093;-38
2021/01/16 08:41:30;;;;;;;23.33;9.73;;;-4.30;99.90;;;;;;4205669;28;20081;-39
2021/01/16 08:43:36;;;;;;;25.75;10.48;;;-4.40;99.90;;;;;;4206250;28;20782;-39
2021/01/16 08:45:38;;;;;;;22.75;8.20;;;-4.20;99.90;;;;;;4206862;28;20081;-39
2021/01/16 08:47:49;;;;;;;16.58;8.07;;;-4.20;99.90;;;;;;4206423;28;20074;-37
2021/01/16 08:49:51;;;;;;;18.48;8.65;;;-4.10;99.90;;;;;;4207025;28;20024;-44
2021/01/16 08:51:54;;;;;;;19.20;8.60;;;-4.30;99.90;;;;;;4206500;28;20020;-46
2021/01/16 08:54:10;;;;;;;21.30;8.88;;;-4.40;99.90;;;;;;4206931;28;20032;-42
2021/01/16 08:56:21;;;;;;;18.83;8.63;;;-4.50;99.90;;;;;;4206084;28;20066;-42
2021/01/16 08:58:28;;;;;;;21.85;7.95;;;-4.60;99.90;;;;;;4206043;28;20467;-48
2021/01/16 09:00:32;;;;;;;25.60;9.70;;;-4.60;99.90;;;;;;4205666;28;20028;-50
2021/01/16 09:02:33;;;;;;;15.45;6.85;;;-4.80;99.90;;;;;;4206177;28;20065;-43
2021/01/16 09:04:35;;;;;;;18.83;7.88;;;-4.90;99.90;;;;;;4206202;28;20032;-39
2021/01/16 09:06:36;;;;;;;22.45;8.48;;;-4.90;99.90;;;;;;4205575;28;20036;-44
2021/01/16 09:08:46;;;;;;;22.50;9.55;;;-4.90;99.90;;;;;;4206232;28;20028;-40
2021/01/16 09:10:48;;;;;;;20.25;8.82;;;-5.00;99.90;;;;;;4206049;28;20521;-44
2021/01/16 09:12:53;;;;;;;21.00;8.70;;;-5.00;99.90;;;;;;4204955;28;20035;-40
2021/01/16 09:15:22;;;;;;;30.50;11.30;;;-4.80;99.90;;;;;;4206034;28;20031;-54
2021/01/16 09:17:23;;;;;;;20.40;8.10;;;-4.80;99.90;;;;;;4206043;28;20085;-40
2021/01/16 09:19:29;;;;;;;22.38;9.27;;;-4.90;99.90;;;;;;4205878;28;20094;-41
2021/01/16 09:21:30;;;;;;;19.38;8.00;;;-4.90;99.90;;;;;;4205441;28;20090;-44
2021/01/16 09:23:41;;;;;;;27.08;11.27;;;-5.00;99.90;;;;;;4206298;28;20036;-49
2021/01/16 09:25:42;;;;;;;36.97;14.40;;;-4.90;99.90;;;;;;4206152;28;20046;-38
2021/01/16 09:27:48;;;;;;;23.42;8.60;;;-4.80;99.90;;;;;;4205925;28;20416;-38
2021/01/16 09:29:49;;;;;;;20.13;8.55;;;-4.80;99.90;;;;;;4205632;28;20028;-40
2021/01/16 09:31:51;;;;;;;24.27;8.70;;;-4.90;99.90;;;;;;4205589;28;20048;-48
2021/01/16 09:33:55;;;;;;;18.52;7.93;;;-4.90;99.90;;;;;;4205101;28;20561;-47
2021/01/16 09:35:56;;;;;;;25.35;9.48;;;-4.90;99.90;;;;;;4205143;28;20032;-45
2021/01/16 09:37:57;;;;;;;18.17;8.48;;;-4.90;99.90;;;;;;4204157;28;20488;-42
2021/01/16 09:40:10;;;;;;;21.95;7.40;;;-5.10;99.90;;;;;;4205398;28;20047;-44
2021/01/16 09:42:21;;;;;;;15.75;7.28;;;-5.20;99.90;;;;;;4204766;28;20051;-43
2021/01/16 09:44:44;;;;;;;16.70;7.57;;;-5.30;99.90;;;;;;4177385;28;20048;-42
2021/01/16 09:46:45;;;;;;;22.23;8.43;;;-5.40;99.90;;;;;;4172207;28;20029;-37
2021/01/16 09:48:47;;;;;;;18.83;7.18;;;-5.50;99.90;;;;;;4172030;28;20098;-39
2021/01/16 09:50:48;;;;;;;16.75;7.40;;;-5.50;99.90;;;;;;4176430;28;20489;-44
2021/01/16 09:52:55;;;;;;;17.77;7.85;;;-5.30;99.90;;;;;;4178529;28;20103;-39
2021/01/16 09:54:56;;;;;;;23.55;6.55;;;-5.20;99.90;;;;;;4189460;28;20032;-41
2021/01/16 09:56:58;;;;;;;18.25;7.28;;;-5.20;99.90;;;;;;4174357;28;20029;-41
2021/01/16 09:59:03;;;;;;;16.33;6.35;;;-5.20;99.90;;;;;;4175595;28;20037;-40
2021/01/16 10:01:24;;;;;;;18.33;6.38;;;-5.20;99.90;;;;;;4188377;28;20040;-40
2021/01/16 10:03:33;;;;;;;20.17;7.40;;;-5.10;99.90;;;;;;4188016;28;20032;-44
2021/01/16 10:05:38;;;;;;;22.42;8.50;;;-5.10;99.90;;;;;;4179331;28;20105;-39
2021/01/16 10:07:42;;;;;;;18.52;8.30;;;-5.00;99.90;;;;;;4188011;28;20515;-40
2021/01/16 10:09:47;;;;;;;11.32;6.00;;;-5.00;99.90;;;;;;4187179;28;20403;-40
2021/01/16 10:11:48;;;;;;;15.90;6.47;;;-5.10;99.90;;;;;;4187540;28;20041;-41
2021/01/16 10:13:53;;;;;;;15.55;6.00;;;-5.10;99.90;;;;;;4188717;28;20141;-39
2021/01/16 10:16:14;;;;;;;17.15;6.43;;;-5.20;99.90;;;;;;4187088;28;20052;-46
2021/01/16 10:18:21;;;;;;;17.52;5.78;;;-5.20;99.90;;;;;;4175282;28;20033;-37
2021/01/16 10:20:34;;;;;;;13.60;5.40;;;-5.30;99.90;;;;;;4172056;28;20045;-46
2021/01/16 10:22:36;;;;;;;17.67;5.65;;;-5.40;99.90;;;;;;4172737;28;20106;-46
2021/01/16 10:24:44;;;;;;;14.65;4.95;;;-5.40;99.90;;;;;;4172183;28;20083;-40
2021/01/16 10:26:47;;;;;;;17.50;5.88;;;-5.50;99.90;;;;;;4171890;28;20040;-40
2021/01/16 10:28:48;;;;;;;16.02;6.57;;;-5.60;99.90;;;;;;4171794;28;20539;-47
2021/01/16 10:31:09;;;;;;;10.30;5.38;;;-5.60;99.90;;;;;;4171917;28;20516;-46
2021/01/16 10:33:19;;;;;;;10.55;5.95;;;-5.60;99.90;;;;;;4171083;28;20040;-47
2021/01/16 10:35:32;;;;;;;19.13;6.45;;;-5.60;99.90;;;;;;4171705;28;20075;-42
2021/01/16 10:37:41;;;;;;;12.90;5.43;;;-5.60;99.90;;;;;;4171197;28;20033;-43
2021/01/16 10:39:48;;;;;;;13.10;6.45;;;-5.60;99.90;;;;;;4171051;28;20045;-41
2021/01/16 10:41:49;;;;;;;24.67;7.60;;;-5.60;99.90;;;;;;4171456;28;20107;-43